Time;durP1;ratioP1;P1;durP2;ratioP2;P2;SDS_P1;SDS_P2;PMS_P1;PMS_P2;Temp;Humidity;BMP_temperature;BMP_pressure;BME280_temperature;BME280_humidity;BME280_pressure;Samples;Min_cycle;Max_cycle;Signal;HPM_P1;HPM_P2
2023/09/15 04:06:33;;;;;;;;;33.67;32.00;;;;;;;;6295495;39;10000335;-57
2023/09/15 04:12:37;;;;;;;;;37.00;33.33;;;;;;;;6493121;39;9041;-57
2023/09/15 04:18:40;;;;;;;;;41.50;35.50;;;;;;;;6490530;46;8870;-56
2023/09/15 04:24:43;;;;;;;;;39.00;35.67;;;;;;;;6491715;31;8913;-58
2023/09/15 04:30:48;;;;;;;;;40.00;34.00;;;;;;;;6491496;39;8901;-57
2023/09/15 04:36:53;;;;;;;;;41.00;36.00;;;;;;;;6490142;31;8932;-57
2023/09/15 04:42:56;;;;;;;;;38.33;34.00;;;;;;;;6490891;46;8874;-57
2023/09/15 04:49:01;;;;;;;;;40.67;36.00;;;;;;;;6490743;46;8845;-57
2023/09/15 04:55:04;;;;;;;;;39.67;36.00;;;;;;;;6491117;39;9581;-57
2023/09/15 05:01:10;;;;;;;;;42.00;36.33;;;;;;;;6491365;47;9065;-57
2023/09/15 05:07:12;;;;;;;;;39.00;34.33;;;;;;;;6491043;39;8879;-57
2023/09/15 05:13:15;;;;;;;;;41.67;34.33;;;;;;;;6491414;39;9427;-57
2023/09/15 05:19:20;;;;;;;;;37.00;33.00;;;;;;;;6492396;39;8922;-57
2023/09/15 05:25:23;;;;;;;;;39.33;35.00;;;;;;;;6490909;31;8917;-55
2023/09/15 05:31:28;;;;;;;;;33.33;31.33;;;;;;;;6490593;39;8843;-57
2023/09/15 05:37:31;;;;;;;;;36.00;31.00;;;;;;;;6490497;31;8892;-57
2023/09/15 05:43:35;;;;;;;;;28.33;27.00;;;;;;;;6491690;39;8883;-58
2023/09/15 05:49:37;;;;;;;;;27.00;25.00;;;;;;;;6493252;39;8935;-56
2023/09/15 05:55:39;;;;;;;;;28.00;26.67;;;;;;;;6492131;39;9514;-57
2023/09/15 06:01:46;;;;;;;;;23.00;21.33;;;;;;;;6492495;46;8945;-58
2023/09/15 06:07:53;;;;;;;;;24.75;22.50;;;;;;;;6490155;46;8929;-55
2023/09/15 06:13:55;;;;;;;;;27.00;25.00;;;;;;;;6491524;31;8858;-58
2023/09/15 06:19:57;;;;;;;;;19.50;19.00;;;;;;;;6491828;39;8914;-60
2023/09/15 06:26:00;;;;;;;;;19.25;18.75;;;;;;;;6490511;31;8917;-58
2023/09/15 06:32:05;;;;;;;;;21.50;19.00;;;;;;;;6491788;39;8855;-57
2023/09/15 06:38:09;;;;;;;;;25.00;21.50;;;;;;;;6491466;39;8865;-58
2023/09/15 06:44:12;;;;;;;;;21.75;21.75;;;;;;;;6490876;46;8888;-59
2023/09/15 06:50:14;;;;;;;;;27.00;25.50;;;;;;;;6489590;39;8858;-58
2023/09/15 06:56:16;;;;;;;;;26.75;26.75;;;;;;;;6489731;39;8923;-60
2023/09/15 07:02:19;;;;;;;;;20.50;20.50;;;;;;;;6308775;46;10001075;-57
2023/09/15 07:08:21;;;;;;;;;24.00;23.50;;;;;;;;6488216;39;8974;-58
2023/09/15 07:14:24;;;;;;;;;28.50;26.25;;;;;;;;6487434;46;8865;-59
2023/09/15 07:20:29;;;;;;;;;23.00;22.75;;;;;;;;6488970;46;8899;-57
2023/09/15 07:26:31;;;;;;;;;24.50;23.00;;;;;;;;6488730;39;8929;-57
2023/09/15 07:32:34;;;;;;;;;26.00;24.50;;;;;;;;6487936;39;8919;-60
2023/09/15 07:38:36;;;;;;;;;27.25;24.00;;;;;;;;6489480;31;8929;-57
2023/09/15 07:44:40;;;;;;;;;28.75;25.50;;;;;;;;6488985;46;8946;-57
2023/09/15 07:50:43;;;;;;;;;20.25;20.00;;;;;;;;6488095;39;8889;-56
2023/09/15 07:56:46;;;;;;;;;28.50;27.00;;;;;;;;6487257;39;9638;-61
2023/09/15 08:02:48;;;;;;;;;33.00;28.00;;;;;;;;6487051;46;9117;-56
2023/09/15 08:08:52;;;;;;;;;25.00;23.25;;;;;;;;6486764;39;8926;-58
2023/09/15 08:14:55;;;;;;;;;28.75;27.75;;;;;;;;6487446;39;8909;-59
2023/09/15 08:20:58;;;;;;;;;27.50;24.00;;;;;;;;6486738;39;8891;-57
2023/09/15 08:27:00;;;;;;;;;26.50;25.50;;;;;;;;6487615;39;8910;-57
2023/09/15 08:33:03;;;;;;;;;32.25;29.50;;;;;;;;6487576;46;8973;-59
2023/09/15 08:39:05;;;;;;;;;33.75;29.75;;;;;;;;6487752;46;8940;-58
2023/09/15 08:45:09;;;;;;;;;26.00;26.00;;;;;;;;6487019;31;9085;-59
2023/09/15 08:51:14;;;;;;;;;34.00;32.00;;;;;;;;6487740;39;8921;-57
2023/09/15 08:57:16;;;;;;;;;32.50;31.75;;;;;;;;6486681;39;8953;-58
2023/09/15 09:03:23;;;;;;;;;31.50;30.00;;;;;;;;6487026;47;9034;-59
2023/09/15 09:09:26;;;;;;;;;34.75;29.50;;;;;;;;6486321;39;8975;-58
2023/09/15 09:15:32;;;;;;;;;31.50;29.75;;;;;;;;6486592;31;8952;-59
2023/09/15 09:21:37;;;;;;;;;26.50;24.00;;;;;;;;6487326;46;8891;-58
2023/09/15 09:27:42;;;;;;;;;28.25;26.00;;;;;;;;6486009;31;8913;-57
2023/09/15 09:33:46;;;;;;;;;34.75;33.50;;;;;;;;6488399;46;9021;-59
2023/09/15 09:39:48;;;;;;;;;32.50;29.25;;;;;;;;6488324;46;8903;-58
2023/09/15 09:45:51;;;;;;;;;29.25;29.25;;;;;;;;6489646;31;8943;-57
2023/09/15 09:51:56;;;;;;;;;34.00;31.25;;;;;;;;6488139;31;8893;-57
2023/09/15 09:58:05;;;;;;;;;32.50;32.00;;;;;;;;6487759;39;9785;-62
2023/09/15 10:04:13;;;;;;;;;29.75;28.75;;;;;;;;6487875;39;8995;-58
2023/09/15 10:10:19;;;;;;;;;34.25;29.75;;;;;;;;6487012;39;8903;-59
2023/09/15 10:16:23;;;;;;;;;32.75;31.00;;;;;;;;6487452;39;8909;-59
2023/09/15 10:22:26;;;;;;;;;33.50;32.00;;;;;;;;6487139;46;9086;-60
2023/09/15 10:28:29;;;;;;;;;36.25;31.75;;;;;;;;6486944;46;9083;-57
2023/09/15 10:34:51;;;;;;;;;42.75;36.00;;;;;;;;6483471;46;8899;-57
2023/09/15 10:40:54;;;;;;;;;32.50;28.00;;;;;;;;6483729;39;8972;-58
2023/09/15 10:46:56;;;;;;;;;34.75;32.00;;;;;;;;6485314;39;9665;-57
2023/09/15 10:53:09;;;;;;;;;36.25;33.75;;;;;;;;6485263;46;8961;-59
2023/09/15 10:59:16;;;;;;;;;34.50;31.25;;;;;;;;6485861;39;8974;-59
2023/09/15 11:05:20;;;;;;;;;32.50;30.00;;;;;;;;6486709;31;9000;-58
2023/09/15 11:11:23;;;;;;;;;40.25;35.00;;;;;;;;6485848;39;9598;-59
2023/09/15 11:17:30;;;;;;;;;31.25;30.75;;;;;;;;6485889;46;8885;-57
2023/09/15 11:23:34;;;;;;;;;27.25;26.50;;;;;;;;6485849;31;8919;-59
2023/09/15 11:29:41;;;;;;;;;33.00;30.25;;;;;;;;6486922;39;8908;-58
2023/09/15 11:35:50;;;;;;;;;28.75;28.75;;;;;;;;6487980;31;8899;-59
2023/09/15 11:41:53;;;;;;;;;33.75;29.75;;;;;;;;6486688;39;8881;-57
2023/09/15 11:47:59;;;;;;;;;31.50;30.25;;;;;;;;6486088;39;9059;-57
2023/09/15 11:54:06;;;;;;;;;26.25;26.25;;;;;;;;6486052;39;8853;-55
2023/09/15 12:00:16;;;;;;;;;31.75;28.00;;;;;;;;6486202;39;8983;-57
2023/09/15 12:06:19;;;;;;;;;33.50;30.75;;;;;;;;6485813;39;8921;-58
2023/09/15 12:12:22;;;;;;;;;30.25;30.00;;;;;;;;6486755;31;8990;-58
2023/09/15 12:18:25;;;;;;;;;27.75;27.75;;;;;;;;6486321;39;8893;-58
2023/09/15 12:24:28;;;;;;;;;26.25;24.25;;;;;;;;6485775;39;8895;-56
2023/09/15 12:30:34;;;;;;;;;30.25;29.75;;;;;;;;6486261;31;8881;-58
2023/09/15 12:36:38;;;;;;;;;29.00;26.75;;;;;;;;6485041;31;9099;-58
2023/09/15 12:42:43;;;;;;;;;27.50;27.25;;;;;;;;6487186;39;8866;-57
2023/09/15 12:48:47;;;;;;;;;32.75;31.00;;;;;;;;6485846;31;8887;-56
2023/09/15 12:54:49;;;;;;;;;26.50;26.50;;;;;;;;6483442;39;9368;-57
2023/09/15 13:00:51;;;;;;;;;32.00;29.50;;;;;;;;6486455;31;8989;-57
2023/09/15 13:06:54;;;;;;;;;30.75;29.75;;;;;;;;6485627;39;8862;-57
2023/09/15 13:12:57;;;;;;;;;31.00;28.00;;;;;;;;6485470;31;8895;-57
2023/09/15 13:19:02;;;;;;;;;31.75;30.50;;;;;;;;6483895;47;8924;-57
2023/09/15 13:25:07;;;;;;;;;31.00;26.50;;;;;;;;6485336;31;8910;-58
2023/09/15 13:31:11;;;;;;;;;28.50;28.25;;;;;;;;6485596;39;8920;-60
2023/09/15 13:37:13;;;;;;;;;27.50;27.00;;;;;;;;6485573;39;8875;-57
2023/09/15 13:43:16;;;;;;;;;26.50;25.75;;;;;;;;6486309;47;9004;-58
2023/09/15 13:49:18;;;;;;;;;35.50;31.50;;;;;;;;6486282;47;8898;-57
2023/09/15 13:55:20;;;;;;;;;31.50;28.50;;;;;;;;6486507;39;8892;-56
2023/09/15 14:01:27;;;;;;;;;22.75;20.25;;;;;;;;6485538;46;8955;-57
2023/09/15 14:07:30;;;;;;;;;27.00;26.25;;;;;;;;6488475;39;8969;-57
2023/09/15 14:13:33;;;;;;;;;28.25;26.75;;;;;;;;6488520;31;9081;-56
2023/09/15 14:19:36;;;;;;;;;27.25;25.75;;;;;;;;6488680;46;8889;-59
2023/09/15 14:25:39;;;;;;;;;27.25;26.25;;;;;;;;6487165;31;8949;-58
2023/09/15 14:31:42;;;;;;;;;33.75;30.25;;;;;;;;6488782;39;8890;-58
2023/09/15 14:37:44;;;;;;;;;28.33;28.00;;;;;;;;6488436;46;8930;-58
2023/09/15 14:43:46;;;;;;;;;28.50;26.50;;;;;;;;6488122;31;8865;-59
2023/09/15 14:49:50;;;;;;;;;33.25;30.00;;;;;;;;6487783;39;8938;-56
2023/09/15 14:55:54;;;;;;;;;29.67;29.00;;;;;;;;6488255;46;8918;-57
2023/09/15 15:01:56;;;;;;;;;30.50;29.75;;;;;;;;6489266;39;9649;-56
2023/09/15 15:08:01;;;;;;;;;27.00;24.50;;;;;;;;6487845;46;8909;-57
2023/09/15 15:14:03;;;;;;;;;29.25;29.25;;;;;;;;6487952;39;9068;-57
2023/09/15 15:20:07;;;;;;;;;29.75;28.50;;;;;;;;6487506;39;8889;-57
2023/09/15 15:26:10;;;;;;;;;25.50;24.75;;;;;;;;6487686;46;8977;-58
2023/09/15 15:32:18;;;;;;;;;27.75;25.75;;;;;;;;6488006;46;8897;-59
2023/09/15 15:38:22;;;;;;;;;21.25;20.50;;;;;;;;6488431;39;8867;-58
2023/09/15 15:44:25;;;;;;;;;31.25;27.50;;;;;;;;6487329;46;8913;-55
2023/09/15 15:50:28;;;;;;;;;29.00;28.75;;;;;;;;6488139;39;9515;-59
2023/09/15 15:56:30;;;;;;;;;30.00;29.00;;;;;;;;6487813;39;8976;-57
2023/09/15 16:02:33;;;;;;;;;31.00;28.25;;;;;;;;6487547;46;8943;-57
2023/09/15 16:08:36;;;;;;;;;30.25;29.75;;;;;;;;6488046;39;8917;-56
2023/09/15 16:14:40;;;;;;;;;31.25;28.25;;;;;;;;6486267;46;8855;-57
